createdAt,value
2019-03-30T00:01:17.667Z,275.01
2019-03-30T00:02:46.387Z,275.01
2019-03-30T00:04:15.189Z,274.97
2019-03-30T00:05:43.912Z,274.92
2019-03-30T00:07:13.426Z,274.9
2019-03-30T00:08:42.227Z,274.84
2019-03-30T00:10:11.107Z,274.84
2019-03-30T00:11:40.785Z,274.82
2019-03-30T00:13:09.509Z,274.79
2019-03-30T00:14:38.227Z,274.75
2019-03-30T00:16:07.825Z,274.72
2019-03-30T00:17:36.546Z,274.75
2019-03-30T00:19:05.509Z,274.73
2019-03-30T00:20:35.111Z,274.78
2019-03-30T00:22:04.787Z,274.75
2019-03-30T00:23:33.748Z,274.7
2019-03-30T00:25:02.702Z,274.66
2019-03-30T00:26:31.826Z,274.64
2019-03-30T00:28:00.545Z,274.6
2019-03-30T00:29:29.273Z,274.57
2019-03-30T00:30:58.317Z,274.54
2019-03-30T00:32:27.107Z,274.51
2019-03-30T00:33:56.385Z,274.48
2019-03-30T00:35:25.107Z,274.5
2019-03-30T00:36:54.552Z,274.49
2019-03-30T00:38:23.395Z,274.48
2019-03-30T00:39:52.148Z,274.51
2019-03-30T00:41:20.868Z,274.55
2019-03-30T00:42:50.068Z,274.54
2019-03-30T00:44:19.505Z,274.54
2019-03-30T00:45:48.227Z,274.53
2019-03-30T00:47:16.947Z,274.51
2019-03-30T00:48:46.866Z,274.47
2019-03-30T00:50:15.588Z,274.46
2019-03-30T00:51:44.307Z,274.42
2019-03-30T00:53:13.193Z,274.4
2019-03-30T00:54:41.907Z,274.39
2019-03-30T00:56:10.708Z,274.36
2019-03-30T00:57:39.588Z,274.34
2019-03-30T00:59:08.306Z,274.32
2019-03-30T01:00:37.990Z,274.29
2019-03-30T01:02:07.266Z,274.25
2019-03-30T01:03:36.867Z,274.27
2019-03-30T01:05:05.588Z,274.26
2019-03-30T01:06:34.547Z,274.27
2019-03-30T01:08:04.146Z,274.25
2019-03-30T01:09:32.866Z,274.27
2019-03-30T01:11:01.586Z,274.27
2019-03-30T01:12:30.306Z,274.22
2019-03-30T01:13:59.025Z,274.15
2019-03-30T01:15:27.991Z,274.15
2019-03-30T01:16:57.585Z,274.11
2019-03-30T01:18:26.320Z,274.09
2019-03-30T01:20:07.826Z,274.07
2019-03-30T01:21:36.703Z,274.09
2019-03-30T01:23:06.390Z,274.13
2019-03-30T01:24:36.229Z,274.11
2019-03-30T01:26:04.948Z,274.1
2019-03-30T01:27:33.667Z,274.07
2019-03-30T01:29:02.387Z,274.05
2019-03-30T01:30:31.987Z,273.97
2019-03-30T01:32:02.626Z,273.95
2019-03-30T01:33:32.226Z,273.94
2019-03-30T01:35:00.958Z,273.92
2019-03-30T01:36:30.627Z,273.93
2019-03-30T01:38:02.949Z,273.9
2019-03-30T01:39:31.666Z,273.88
2019-03-30T01:41:00.626Z,273.95
2019-03-30T01:42:29.429Z,273.96
2019-03-30T01:43:58.144Z,273.94
2019-03-30T01:45:27.906Z,273.95
2019-03-30T01:46:56.627Z,273.94
2019-03-30T01:48:26.066Z,273.95
2019-03-30T01:49:54.784Z,273.94
2019-03-30T01:51:23.826Z,273.92
2019-03-30T01:52:52.948Z,273.9
2019-03-30T01:54:21.743Z,273.88
2019-03-30T01:55:50.465Z,273.89
2019-03-30T01:57:19.395Z,273.86
2019-03-30T01:58:49.183Z,273.81
2019-03-30T02:00:17.905Z,273.75
2019-03-30T02:01:46.626Z,273.74
2019-03-30T02:03:15.423Z,273.79
2019-03-30T02:04:45.026Z,273.85
2019-03-30T02:06:13.742Z,273.82
2019-03-30T02:07:42.788Z,273.8
2019-03-30T02:09:12.386Z,273.87
2019-03-30T02:10:41.185Z,273.87
2019-03-30T02:12:09.904Z,273.82
2019-03-30T02:13:38.864Z,273.77
2019-03-30T02:15:07.585Z,273.75
2019-03-30T02:16:36.307Z,273.68
2019-03-30T02:18:05.029Z,273.64
2019-03-30T02:19:34.628Z,273.63
2019-03-30T02:21:04.064Z,273.6
2019-03-30T02:22:33.347Z,273.58
2019-03-30T02:24:02.065Z,273.58
2019-03-30T02:25:31.126Z,273.54
2019-03-30T02:27:00.066Z,273.51
2019-03-30T02:28:28.785Z,273.47
2019-03-30T02:29:57.502Z,273.46
2019-03-30T02:31:27.112Z,273.46
2019-03-30T02:32:55.905Z,273.49
2019-03-30T02:34:24.706Z,273.51
2019-03-30T02:35:53.510Z,273.45
2019-03-30T02:37:22.224Z,273.43
2019-03-30T02:38:51.025Z,273.45
2019-03-30T02:40:19.745Z,273.43
2019-03-30T02:41:48.466Z,273.45
2019-03-30T02:43:17.350Z,273.47
2019-03-30T02:44:46.067Z,273.49
2019-03-30T02:46:14.787Z,273.44
2019-03-30T02:47:43.585Z,273.39
2019-03-30T02:49:14.145Z,273.37
2019-03-30T02:50:55.107Z,273.37
2019-03-30T02:52:23.999Z,273.37
2019-03-30T02:53:52.787Z,273.37
2019-03-30T02:55:21.503Z,273.36
2019-03-30T02:56:50.247Z,273.35
2019-03-30T02:58:19.026Z,273.35
2019-03-30T02:59:47.745Z,273.34
2019-03-30T03:01:16.472Z,273.32
2019-03-30T03:02:45.267Z,273.3
2019-03-30T03:04:14.154Z,273.26
2019-03-30T03:05:43.185Z,273.25
2019-03-30T03:07:12.865Z,273.25
2019-03-30T03:08:41.664Z,273.2
2019-03-30T03:10:11.111Z,273.15
2019-03-30T03:11:40.317Z,273.13
2019-03-30T03:13:09.169Z,273.15
2019-03-30T03:14:37.985Z,273.16
2019-03-30T03:16:06.794Z,273.15
2019-03-30T03:17:35.743Z,273.12
2019-03-30T03:19:05.423Z,273.09
2019-03-30T03:20:34.143Z,273.09
2019-03-30T03:22:02.941Z,273.09
2019-03-30T03:23:31.664Z,273.1
2019-03-30T03:25:01.422Z,273.07
2019-03-30T03:26:30.234Z,273.06
2019-03-30T03:27:59.046Z,273.05
2019-03-30T03:29:27.826Z,273.04
2019-03-30T03:30:56.706Z,273.03
2019-03-30T03:32:26.382Z,273.02
2019-03-30T03:33:55.188Z,272.98
2019-03-30T03:35:24.063Z,272.96
2019-03-30T03:36:52.787Z,272.97
2019-03-30T03:38:21.502Z,272.93
2019-03-30T03:39:51.023Z,272.92
2019-03-30T03:41:19.741Z,272.9
2019-03-30T03:42:48.544Z,272.87
2019-03-30T03:44:17.516Z,272.84
2019-03-30T03:45:47.272Z,272.81
2019-03-30T03:47:16.068Z,272.79
2019-03-30T03:48:45.749Z,272.78
2019-03-30T03:50:14.620Z,272.79
2019-03-30T03:51:43.342Z,272.8
2019-03-30T03:53:12.063Z,272.79
2019-03-30T03:54:40.876Z,272.77
2019-03-30T03:56:09.748Z,272.78
2019-03-30T03:57:38.481Z,272.79
2019-03-30T03:59:08.229Z,272.78
2019-03-30T04:00:37.424Z,272.76
2019-03-30T04:02:06.225Z,272.76
2019-03-30T04:03:35.825Z,272.74
2019-03-30T04:05:04.623Z,272.72
2019-03-30T04:06:33.430Z,272.72
2019-03-30T04:08:02.229Z,272.71
2019-03-30T04:09:31.988Z,272.68
2019-03-30T04:11:00.791Z,272.67
2019-03-30T04:12:29.846Z,272.66
2019-03-30T04:13:58.626Z,272.65
2019-03-30T04:15:27.348Z,272.65
2019-03-30T04:16:56.064Z,272.64
2019-03-30T04:18:25.509Z,272.62
2019-03-30T04:19:54.794Z,272.6
2019-03-30T04:21:23.824Z,272.58
2019-03-30T04:22:52.709Z,272.59
2019-03-30T04:24:21.515Z,272.58
2019-03-30T04:25:51.186Z,272.57
2019-03-30T04:27:20.864Z,272.57
2019-03-30T04:28:51.749Z,272.55
2019-03-30T04:30:21.369Z,272.52
2019-03-30T04:31:50.157Z,272.5
2019-03-30T04:33:19.426Z,272.49
2019-03-30T04:34:48.227Z,272.5
2019-03-30T04:36:16.954Z,272.5
2019-03-30T04:37:46.249Z,272.48
2019-03-30T04:39:15.905Z,272.47
2019-03-30T04:40:44.629Z,272.47
2019-03-30T04:42:13.350Z,272.46
2019-03-30T04:43:42.307Z,272.44
2019-03-30T04:45:11.109Z,272.44
2019-03-30T04:46:39.911Z,272.44
2019-03-30T04:48:08.715Z,272.43
2019-03-30T04:49:38.150Z,272.41
2019-03-30T04:51:06.868Z,272.41
2019-03-30T04:52:35.669Z,272.39
2019-03-30T04:54:04.386Z,272.35
2019-03-30T04:55:33.507Z,272.35
2019-03-30T04:57:02.306Z,272.35
2019-03-30T04:58:31.026Z,272.35
2019-03-30T04:59:59.746Z,272.34
2019-03-30T05:01:30.550Z,272.33
2019-03-30T05:02:59.346Z,272.33
2019-03-30T05:04:28.066Z,272.32
2019-03-30T05:05:56.794Z,272.31
2019-03-30T05:07:25.509Z,272.3
2019-03-30T05:08:54.233Z,272.3
2019-03-30T05:10:22.947Z,272.29
2019-03-30T05:11:52.552Z,272.3
2019-03-30T05:13:21.267Z,272.32
2019-03-30T05:14:50.865Z,272.28
2019-03-30T05:16:19.587Z,272.28
2019-03-30T05:17:52.784Z,272.29
2019-03-30T05:19:21.509Z,272.31
2019-03-30T05:20:50.224Z,272.32
2019-03-30T05:22:21.666Z,272.32
2019-03-30T05:23:50.468Z,272.33
2019-03-30T05:25:19.188Z,272.33
2019-03-30T05:26:47.993Z,272.32
2019-03-30T05:28:17.829Z,272.32
2019-03-30T05:29:46.552Z,272.32
2019-03-30T05:31:15.345Z,272.33
2019-03-30T05:32:46.707Z,272.33
2019-03-30T05:34:15.508Z,272.35
2019-03-30T05:35:44.224Z,272.37
2019-03-30T05:37:12.945Z,272.41
2019-03-30T05:38:41.744Z,272.42
2019-03-30T05:40:11.504Z,272.45
2019-03-30T05:41:40.223Z,272.49
2019-03-30T05:43:08.946Z,272.53
2019-03-30T05:44:37.662Z,272.54
2019-03-30T05:46:06.389Z,272.57
2019-03-30T05:47:35.104Z,272.6
2019-03-30T05:49:04.708Z,272.63
2019-03-30T05:50:33.429Z,272.66
2019-03-30T05:52:03.023Z,272.7
2019-03-30T05:53:31.827Z,272.77
2019-03-30T05:55:00.547Z,272.84
2019-03-30T05:56:29.351Z,272.9
2019-03-30T05:57:58.144Z,272.93
2019-03-30T05:59:26.863Z,272.95
2019-03-30T06:00:55.590Z,272.94
2019-03-30T06:02:24.463Z,272.96
2019-03-30T06:03:53.208Z,272.99
2019-03-30T06:05:21.987Z,273.03
2019-03-30T06:06:50.704Z,273.07
2019-03-30T06:08:19.431Z,273.18
2019-03-30T06:09:48.147Z,273.27
2019-03-30T06:11:16.945Z,273.33
2019-03-30T06:12:45.905Z,273.41
2019-03-30T06:14:14.704Z,273.44
2019-03-30T06:15:43.506Z,273.47
2019-03-30T06:17:12.623Z,273.5
2019-03-30T06:18:41.362Z,273.59
2019-03-30T06:20:10.149Z,273.63
2019-03-30T06:21:40.708Z,273.67
2019-03-30T06:23:10.386Z,273.71
2019-03-30T06:24:39.749Z,273.71
2019-03-30T06:26:09.429Z,273.77
2019-03-30T06:27:38.158Z,273.89
2019-03-30T06:29:07.831Z,274.05
2019-03-30T06:30:36.625Z,274.19
2019-03-30T06:32:06.224Z,274.25
2019-03-30T06:33:35.825Z,274.39
2019-03-30T06:35:05.507Z,274.49
2019-03-30T06:36:35.106Z,274.59
2019-03-30T06:38:03.832Z,274.61
2019-03-30T06:39:32.547Z,274.59
2019-03-30T06:41:02.234Z,274.57
2019-03-30T06:42:30.959Z,274.6
2019-03-30T06:44:00.630Z,274.6
2019-03-30T06:45:29.349Z,274.67
2019-03-30T06:46:58.074Z,274.78
2019-03-30T06:48:26.786Z,274.86
2019-03-30T06:49:56.151Z,274.92
2019-03-30T06:51:24.867Z,275.06
2019-03-30T06:53:03.028Z,275.19
2019-03-30T06:54:31.756Z,275.37
2019-03-30T06:56:01.434Z,275.49
2019-03-30T06:57:30.149Z,275.6
2019-03-30T06:58:58.953Z,275.68
2019-03-30T07:00:27.987Z,275.76
2019-03-30T07:01:56.788Z,275.83
2019-03-30T07:03:25.507Z,275.89
2019-03-30T07:04:55.107Z,275.95
2019-03-30T07:06:23.832Z,276.05
2019-03-30T07:07:53.029Z,276.14
2019-03-30T07:09:22.645Z,276.17
2019-03-30T07:10:51.428Z,276.24
2019-03-30T07:12:20.235Z,276.3
2019-03-30T07:13:48.946Z,276.43
2019-03-30T07:15:17.668Z,276.47
2019-03-30T07:16:46.627Z,276.54
2019-03-30T07:18:15.663Z,276.63
2019-03-30T07:19:44.473Z,276.66
2019-03-30T07:21:14.144Z,276.73
2019-03-30T07:22:42.948Z,276.82
2019-03-30T07:24:12.184Z,276.92
2019-03-30T07:25:40.951Z,276.99
2019-03-30T07:27:09.825Z,277.05
2019-03-30T07:28:38.626Z,277.15
2019-03-30T07:30:08.143Z,277.25
2019-03-30T07:31:36.947Z,277.32
2019-03-30T07:33:06.306Z,277.37
2019-03-30T07:34:35.105Z,277.46
2019-03-30T07:36:04.390Z,277.57
2019-03-30T07:37:33.182Z,277.68
2019-03-30T07:39:01.904Z,277.77
2019-03-30T07:40:33.978Z,277.83
2019-03-30T07:42:03.516Z,277.93
2019-03-30T07:43:33.284Z,278.04
2019-03-30T07:45:03.747Z,278.14
2019-03-30T07:46:32.547Z,278.26
2019-03-30T07:48:01.265Z,278.37
2019-03-30T07:49:29.982Z,278.48
2019-03-30T07:50:58.786Z,278.53
2019-03-30T07:52:27.505Z,278.63
2019-03-30T07:53:56.223Z,278.72
2019-03-30T07:55:26.703Z,278.81
2019-03-30T07:57:16.728Z,278.82
2019-03-30T07:58:47.267Z,278.95
2019-03-30T08:00:15.983Z,279.05
2019-03-30T08:01:44.867Z,279.08
2019-03-30T08:03:13.585Z,279.15
2019-03-30T08:04:42.303Z,279.23
2019-03-30T08:06:11.225Z,279.3
2019-03-30T08:07:40.225Z,279.4
2019-03-30T08:09:09.271Z,279.44
2019-03-30T08:10:38.065Z,279.5
2019-03-30T08:12:07.825Z,279.57
2019-03-30T08:13:38.444Z,279.69
2019-03-30T08:15:08.156Z,279.78
2019-03-30T08:16:36.947Z,279.9
2019-03-30T08:18:05.671Z,280
2019-03-30T08:19:35.347Z,280.07
2019-03-30T08:21:04.068Z,280.13
2019-03-30T08:22:33.356Z,280.19
2019-03-30T08:24:02.154Z,280.24
2019-03-30T08:25:30.951Z,280.35
2019-03-30T08:27:00.075Z,280.38
2019-03-30T08:28:29.271Z,280.48
2019-03-30T08:29:57.994Z,280.57
2019-03-30T08:31:28.064Z,280.67
2019-03-30T08:32:56.792Z,280.77
2019-03-30T08:34:26.065Z,280.87
2019-03-30T08:35:55.749Z,280.96
2019-03-30T08:37:24.710Z,281.03
2019-03-30T08:38:53.428Z,281.07
2019-03-30T08:40:22.465Z,281.12
2019-03-30T08:41:51.906Z,281.19
2019-03-30T08:43:20.627Z,281.35
2019-03-30T08:44:49.657Z,281.46
2019-03-30T08:46:18.543Z,281.59
2019-03-30T08:47:47.266Z,281.69
2019-03-30T08:49:15.985Z,281.79
2019-03-30T08:50:44.707Z,281.88
2019-03-30T08:52:13.427Z,281.95
2019-03-30T08:53:53.886Z,282.03
2019-03-30T08:55:23.988Z,282.18
2019-03-30T08:56:52.785Z,282.21
2019-03-30T08:58:22.385Z,282.34
2019-03-30T08:59:51.107Z,282.46
2019-03-30T09:01:20.389Z,282.65
2019-03-30T09:02:49.186Z,282.76
2019-03-30T09:04:17.906Z,282.85
2019-03-30T09:05:48.066Z,282.9
2019-03-30T09:07:17.668Z,283.06
2019-03-30T09:08:46.388Z,283.19
2019-03-30T09:10:15.104Z,283.25
2019-03-30T09:11:43.989Z,283.36
2019-03-30T09:13:13.589Z,283.42
2019-03-30T09:14:43.186Z,283.41
2019-03-30T09:16:11.907Z,283.5
2019-03-30T09:17:42.385Z,283.64
2019-03-30T09:19:11.987Z,283.81
2019-03-30T09:20:41.266Z,284.02
2019-03-30T09:22:09.985Z,284.17
2019-03-30T09:23:38.705Z,284.36
2019-03-30T09:25:09.106Z,284.53
2019-03-30T09:26:37.824Z,284.59
2019-03-30T09:28:07.266Z,284.68
2019-03-30T09:29:36.753Z,284.74
2019-03-30T09:31:05.666Z,284.72
2019-03-30T09:32:34.468Z,284.84
2019-03-30T09:34:03.187Z,284.98
2019-03-30T09:35:32.228Z,285.16
2019-03-30T09:37:01.908Z,285.32
2019-03-30T09:38:30.627Z,285.52
2019-03-30T09:40:00.382Z,285.9
2019-03-30T09:41:29.908Z,286.5
2019-03-30T09:42:58.626Z,286.8
2019-03-30T09:44:27.597Z,286.8
2019-03-30T09:45:56.307Z,287
2019-03-30T09:47:25.035Z,287.1
2019-03-30T09:48:54.632Z,287.09
2019-03-30T09:50:25.109Z,286.84
2019-03-30T09:51:54.707Z,287.04
2019-03-30T09:53:23.424Z,287.3
2019-03-30T09:54:52.142Z,287.48
2019-03-30T09:56:23.008Z,287.49
2019-03-30T09:57:52.145Z,287.57
2019-03-30T09:59:21.826Z,287.61
2019-03-30T10:00:52.391Z,287.67
2019-03-30T10:02:22.067Z,287.45
2019-03-30T10:03:50.874Z,287.22
2019-03-30T10:05:19.586Z,287.52
2019-03-30T10:06:48.308Z,287.59
2019-03-30T10:08:17.109Z,287.51
2019-03-30T10:09:47.347Z,287.39
2019-03-30T10:11:16.387Z,287.66
2019-03-30T10:12:46.064Z,287.73
2019-03-30T10:14:14.787Z,287.87
2019-03-30T10:15:44.388Z,288.02
2019-03-30T10:17:13.106Z,288.27
2019-03-30T10:18:41.828Z,288.29
2019-03-30T10:20:10.556Z,288.16
2019-03-30T10:21:39.266Z,288.07
2019-03-30T10:23:08.084Z,287.85
2019-03-30T10:24:43.431Z,288.07
2019-03-30T10:26:12.741Z,288.28
2019-03-30T10:27:41.674Z,288.1
2019-03-30T10:29:11.437Z,287.99
2019-03-30T10:30:40.952Z,288.47
2019-03-30T10:32:09.673Z,288.82
2019-03-30T10:33:38.466Z,288.85
2019-03-30T10:35:07.266Z,288.96
2019-03-30T10:36:35.985Z,289.03
2019-03-30T10:38:04.708Z,288.82
2019-03-30T10:39:33.430Z,288.88
2019-03-30T10:41:03.032Z,288.81
2019-03-30T10:42:32.708Z,288.78
2019-03-30T10:44:01.508Z,289.16
2019-03-30T10:45:30.307Z,289.18
2019-03-30T10:46:59.106Z,289.16
2019-03-30T10:48:27.826Z,289.38
2019-03-30T10:49:57.026Z,289.47
2019-03-30T10:51:26.711Z,289.39
2019-03-30T10:52:57.266Z,289.19
2019-03-30T10:54:25.996Z,289.34
2019-03-30T10:55:54.785Z,289.44
2019-03-30T10:57:23.509Z,289.45
2019-03-30T10:58:52.307Z,289.57
2019-03-30T11:00:21.025Z,289.61
2019-03-30T11:01:52.335Z,289.79
2019-03-30T11:03:21.904Z,289.89
2019-03-30T11:04:51.504Z,289.88
2019-03-30T11:06:20.232Z,290.17
2019-03-30T11:07:49.358Z,290.39
2019-03-30T11:09:19.264Z,290.42
2019-03-30T11:10:48.063Z,290.27
2019-03-30T11:12:17.268Z,290.33
2019-03-30T11:13:45.990Z,290.64
2019-03-30T11:15:14.704Z,290.81
2019-03-30T11:16:45.185Z,290.91
2019-03-30T11:18:13.905Z,290.98
2019-03-30T11:19:42.625Z,290.99
2019-03-30T11:21:12.624Z,291.02
2019-03-30T11:22:41.345Z,291.29
2019-03-30T11:24:11.826Z,291.44
2019-03-30T11:25:41.424Z,291.37
2019-03-30T11:27:10.146Z,291.44
2019-03-30T11:28:38.865Z,291.77
2019-03-30T11:30:07.586Z,291.91
2019-03-30T11:31:36.305Z,291.88
2019-03-30T11:33:06.229Z,291.68
2019-03-30T11:34:35.906Z,291.62
2019-03-30T11:36:04.630Z,291.56
2019-03-30T11:37:33.666Z,291.72
2019-03-30T11:39:02.390Z,291.65
2019-03-30T11:40:31.110Z,291.46
2019-03-30T11:42:00.705Z,291.51
2019-03-30T11:43:29.429Z,291.55
2019-03-30T11:44:58.908Z,291.6
2019-03-30T11:46:27.665Z,291.8
2019-03-30T11:47:57.270Z,291.56
2019-03-30T11:49:26.227Z,291.22
2019-03-30T11:50:54.953Z,290.96
2019-03-30T11:52:23.994Z,290.85
2019-03-30T11:53:53.346Z,291.06
2019-03-30T11:55:27.027Z,291.18
2019-03-30T11:56:55.984Z,291.31
2019-03-30T11:58:25.428Z,291.35
2019-03-30T11:59:54.146Z,291.52
2019-03-30T12:01:26.959Z,291.63
2019-03-30T12:02:55.746Z,291.83
2019-03-30T12:04:25.347Z,291.87
2019-03-30T12:05:54.068Z,291.58
2019-03-30T12:07:22.866Z,291.08
2019-03-30T12:08:51.607Z,290.93
2019-03-30T12:10:20.386Z,290.75
2019-03-30T12:11:49.186Z,290.62
2019-03-30T12:13:17.908Z,290.51
2019-03-30T12:14:46.634Z,290.78
2019-03-30T12:16:16.308Z,291.15
2019-03-30T12:17:47.186Z,291.4
2019-03-30T12:19:15.914Z,291.55
2019-03-30T12:20:44.628Z,291.7
2019-03-30T12:22:13.443Z,291.69
2019-03-30T12:23:42.933Z,291.83
2019-03-30T12:25:11.754Z,291.88
2019-03-30T12:26:40.549Z,291.96
2019-03-30T12:28:09.281Z,291.97
2019-03-30T12:29:38.121Z,292.01
2019-03-30T12:31:08.787Z,292.13
2019-03-30T12:32:37.589Z,292.04
2019-03-30T12:34:06.868Z,292.11
2019-03-30T12:35:35.589Z,292.24
2019-03-30T12:37:04.312Z,292.38
2019-03-30T12:38:33.505Z,292.4
2019-03-30T12:40:03.508Z,292.36
2019-03-30T12:41:32.226Z,292.2
2019-03-30T12:43:01.025Z,292.12
2019-03-30T12:44:29.747Z,292.07
2019-03-30T12:45:58.464Z,292.13
2019-03-30T12:47:28.066Z,292.12
2019-03-30T12:48:56.794Z,292.21
2019-03-30T12:50:25.583Z,292.31
2019-03-30T12:51:55.264Z,292.21
2019-03-30T12:53:24.144Z,292.12
2019-03-30T12:54:53.841Z,291.65
2019-03-30T12:56:22.625Z,291.29
2019-03-30T12:57:51.826Z,291.15
2019-03-30T12:59:21.025Z,291.38
2019-03-30T13:00:50.463Z,291.67
2019-03-30T13:02:19.187Z,291.95
2019-03-30T13:03:48.062Z,291.92
2019-03-30T13:05:16.790Z,291.94
2019-03-30T13:06:47.505Z,291.93
2019-03-30T13:08:18.307Z,291.9
2019-03-30T13:09:47.985Z,291.82
2019-03-30T13:11:18.462Z,291.83
2019-03-30T13:12:47.744Z,291.89
2019-03-30T13:14:16.464Z,292
2019-03-30T13:15:46.149Z,292.11
2019-03-30T13:17:14.867Z,292.08
2019-03-30T13:18:44.145Z,292.1
2019-03-30T13:20:12.864Z,292.26
2019-03-30T13:21:51.646Z,292.36
2019-03-30T13:23:22.229Z,292.33
2019-03-30T13:24:51.167Z,292.37
2019-03-30T13:26:19.998Z,292.31
2019-03-30T13:27:48.704Z,292.21
2019-03-30T13:29:17.426Z,292.3
2019-03-30T13:30:46.192Z,292.35
2019-03-30T13:32:15.025Z,292.48
2019-03-30T13:33:43.825Z,292.52
2019-03-30T13:35:12.623Z,292.46
2019-03-30T13:36:41.348Z,292.46
2019-03-30T13:38:10.384Z,292.49
2019-03-30T13:39:40.246Z,292.54
2019-03-30T13:41:09.103Z,292.48
2019-03-30T13:42:38.304Z,292.36
2019-03-30T13:44:07.748Z,292.36
2019-03-30T13:45:37.424Z,292.44
2019-03-30T13:47:07.025Z,292.63
2019-03-30T13:48:35.825Z,292.62
2019-03-30T13:50:04.624Z,292.61
2019-03-30T13:51:33.429Z,292.69
2019-03-30T13:53:02.236Z,292.71
2019-03-30T13:54:31.024Z,292.64
2019-03-30T13:55:59.826Z,292.61
2019-03-30T13:57:28.668Z,292.72
2019-03-30T13:58:57.505Z,292.86
2019-03-30T14:00:27.266Z,292.81
2019-03-30T14:01:55.986Z,292.77
2019-03-30T14:03:24.710Z,292.89
2019-03-30T14:04:53.505Z,292.85
2019-03-30T14:06:22.248Z,292.98
2019-03-30T14:07:51.105Z,292.87
2019-03-30T14:09:22.000Z,292.78
2019-03-30T14:10:50.946Z,292.72
2019-03-30T14:12:19.746Z,292.68
2019-03-30T14:13:48.631Z,292.59
2019-03-30T14:15:17.461Z,292.73
2019-03-30T14:16:47.101Z,292.81
2019-03-30T14:18:15.847Z,292.87
2019-03-30T14:19:44.707Z,292.86
2019-03-30T14:21:14.228Z,292.92
2019-03-30T14:22:42.971Z,292.92
2019-03-30T14:24:11.825Z,292.93
2019-03-30T14:25:40.705Z,293.09
2019-03-30T14:27:10.305Z,293.17
2019-03-30T14:28:39.038Z,293.04
2019-03-30T14:30:07.826Z,292.91
2019-03-30T14:31:36.549Z,292.91
2019-03-30T14:33:05.267Z,292.94
2019-03-30T14:34:34.146Z,293.02
2019-03-30T14:36:03.588Z,293.1
2019-03-30T14:37:32.486Z,293.09
2019-03-30T14:39:01.346Z,293.1
2019-03-30T14:40:30.068Z,292.98
2019-03-30T14:41:58.869Z,292.81
2019-03-30T14:43:28.465Z,292.73
2019-03-30T14:44:57.185Z,292.76
2019-03-30T14:46:25.906Z,292.79
2019-03-30T14:47:57.719Z,292.72
2019-03-30T14:49:27.109Z,292.46
2019-03-30T14:50:55.915Z,292.4
2019-03-30T14:52:24.710Z,292.47
2019-03-30T14:53:53.427Z,292.58
2019-03-30T14:55:22.387Z,292.45
2019-03-30T14:56:53.747Z,292.23
2019-03-30T14:58:22.545Z,292.02
2019-03-30T14:59:51.425Z,292.13
2019-03-30T15:01:20.307Z,292.38
2019-03-30T15:02:49.029Z,292.43
2019-03-30T15:04:17.916Z,292.48
2019-03-30T15:05:47.514Z,292.48
2019-03-30T15:07:16.307Z,292.49
2019-03-30T15:08:45.906Z,292.55
2019-03-30T15:10:14.705Z,292.67
2019-03-30T15:11:43.428Z,292.8
2019-03-30T15:13:12.146Z,292.93
2019-03-30T15:14:40.949Z,293.05
2019-03-30T15:16:10.466Z,293.16
2019-03-30T15:17:40.787Z,293.04
2019-03-30T15:19:10.473Z,292.83
2019-03-30T15:20:41.183Z,292.63
2019-03-30T15:22:10.309Z,292.47
2019-03-30T15:23:39.906Z,292.39
2019-03-30T15:25:09.345Z,292.4
2019-03-30T15:26:38.067Z,292.36
2019-03-30T15:28:07.668Z,292.31
2019-03-30T15:29:37.115Z,292.36
2019-03-30T15:31:05.908Z,292.36
2019-03-30T15:32:34.710Z,292.38
2019-03-30T15:34:03.434Z,292.31
2019-03-30T15:35:32.228Z,292.01
2019-03-30T15:37:00.950Z,291.85
2019-03-30T15:38:30.550Z,291.95
2019-03-30T15:39:59.346Z,292.08
2019-03-30T15:41:28.144Z,291.97
2019-03-30T15:42:56.944Z,291.82
2019-03-30T15:44:25.666Z,291.91
2019-03-30T15:45:54.389Z,292.02
2019-03-30T15:47:23.426Z,291.95
2019-03-30T15:48:52.947Z,291.64
2019-03-30T15:50:21.912Z,291.51
2019-03-30T15:51:50.638Z,291.63
2019-03-30T15:53:19.431Z,291.74
2019-03-30T15:54:48.169Z,291.8
2019-03-30T15:56:16.949Z,291.84
2019-03-30T15:57:45.672Z,291.83
2019-03-30T15:59:14.551Z,291.83
2019-03-30T16:00:46.155Z,291.79
2019-03-30T16:02:15.827Z,291.78
2019-03-30T16:03:44.552Z,291.77
2019-03-30T16:05:15.320Z,291.74
2019-03-30T16:06:46.065Z,291.63
2019-03-30T16:08:14.788Z,291.62
2019-03-30T16:09:44.390Z,291.59
2019-03-30T16:11:13.986Z,291.5
2019-03-30T16:12:43.665Z,291.41
2019-03-30T16:14:12.387Z,291.36
2019-03-30T16:15:44.264Z,291.35
2019-03-30T16:17:14.888Z,291.25
2019-03-30T16:18:43.986Z,291.17
2019-03-30T16:20:16.470Z,291.09
2019-03-30T16:21:45.266Z,291.03
2019-03-30T16:23:13.987Z,291.01
2019-03-30T16:24:43.589Z,290.98
2019-03-30T16:26:13.269Z,290.94
2019-03-30T16:27:44.388Z,290.88
2019-03-30T16:29:13.506Z,290.83
2019-03-30T16:30:42.230Z,290.78
2019-03-30T16:32:11.027Z,290.73
2019-03-30T16:33:39.746Z,290.7
2019-03-30T16:35:08.466Z,290.64
2019-03-30T16:36:38.225Z,290.6
2019-03-30T16:38:06.946Z,290.55
2019-03-30T16:39:35.664Z,290.51
2019-03-30T16:41:04.386Z,290.46
2019-03-30T16:42:33.106Z,290.43
2019-03-30T16:44:02.546Z,290.35
2019-03-30T16:45:31.345Z,290.32
2019-03-30T16:47:02.626Z,290.23
2019-03-30T16:48:31.343Z,290.15
2019-03-30T16:50:00.946Z,290.1
2019-03-30T16:51:29.753Z,290.02
2019-03-30T16:52:58.546Z,289.98
2019-03-30T16:54:27.269Z,289.89
2019-03-30T16:55:56.867Z,289.86
2019-03-30T16:57:27.351Z,289.83
2019-03-30T16:58:57.021Z,289.76
2019-03-30T17:00:26.626Z,289.67
2019-03-30T17:01:55.344Z,289.59
2019-03-30T17:03:24.067Z,289.53
2019-03-30T17:04:52.783Z,289.43
2019-03-30T17:06:21.825Z,289.35
2019-03-30T17:07:50.818Z,289.26
2019-03-30T17:09:20.545Z,289.25
2019-03-30T17:10:49.429Z,289.13
2019-03-30T17:12:18.319Z,289.06
2019-03-30T17:13:48.033Z,288.97
2019-03-30T17:15:17.746Z,288.89
2019-03-30T17:16:46.466Z,288.81
2019-03-30T17:18:15.184Z,288.67
2019-03-30T17:19:44.785Z,288.6
2019-03-30T17:21:13.984Z,288.43
2019-03-30T17:22:42.783Z,288.32
2019-03-30T17:24:11.507Z,288.25
2019-03-30T17:25:40.227Z,288.23
2019-03-30T17:27:09.106Z,288.07
2019-03-30T17:28:38.028Z,287.9
2019-03-30T17:30:07.773Z,287.84
2019-03-30T17:31:36.624Z,287.73
2019-03-30T17:33:05.346Z,287.65
2019-03-30T17:34:34.224Z,287.62
2019-03-30T17:36:02.944Z,287.56
2019-03-30T17:37:31.747Z,287.52
2019-03-30T17:39:00.467Z,287.5
2019-03-30T17:40:29.423Z,287.51
2019-03-30T17:41:58.225Z,287.54
2019-03-30T17:43:27.104Z,287.53
2019-03-30T17:44:56.784Z,287.5
2019-03-30T17:46:25.586Z,287.42
2019-03-30T17:47:54.413Z,287.3
2019-03-30T17:49:24.071Z,287.25
2019-03-30T17:50:52.876Z,287.16
2019-03-30T17:52:21.665Z,287.02
2019-03-30T17:53:50.383Z,286.9
2019-03-30T17:55:32.615Z,286.74
2019-03-30T17:57:03.102Z,286.48
2019-03-30T17:58:32.708Z,286.37
2019-03-30T18:00:01.509Z,286.25
2019-03-30T18:01:30.225Z,286.22
2019-03-30T18:02:59.828Z,286.18
2019-03-30T18:04:28.549Z,286.07
2019-03-30T18:05:58.787Z,285.98
2019-03-30T18:07:27.585Z,285.9
2019-03-30T18:08:57.185Z,285.86
2019-03-30T18:10:25.905Z,285.81
2019-03-30T18:11:54.709Z,285.71
2019-03-30T18:13:23.425Z,285.55
2019-03-30T18:14:52.150Z,285.53
2019-03-30T18:16:22.449Z,285.43
2019-03-30T18:17:51.584Z,285.31
2019-03-30T18:19:21.345Z,285.19
2019-03-30T18:20:50.063Z,285.2
2019-03-30T18:22:18.865Z,285.25
2019-03-30T18:23:52.506Z,285.24
2019-03-30T18:25:21.346Z,285.2
2019-03-30T18:26:51.030Z,285.12
2019-03-30T18:28:32.144Z,285
2019-03-30T18:30:01.867Z,285
2019-03-30T18:31:30.706Z,285.01
2019-03-30T18:32:59.747Z,285.02
2019-03-30T18:34:28.466Z,285.02
2019-03-30T18:35:57.263Z,284.91
2019-03-30T18:37:25.988Z,284.74
2019-03-30T18:39:08.385Z,284.62